createdAt,value
2022-07-30T00:00:24.763Z,75.4
2022-07-30T00:05:21.197Z,75.3
2022-07-30T00:10:25.726Z,74.6
2022-07-30T00:15:30.233Z,74.8
2022-07-30T00:20:34.791Z,74.5
2022-07-30T00:25:38.333Z,73.8
2022-07-30T00:30:42.918Z,73.7
2022-07-30T00:35:47.405Z,74.8
2022-07-30T00:40:50.970Z,76
2022-07-30T00:45:55.554Z,75.7
2022-07-30T00:50:59.999Z,75.9
2022-07-30T00:56:03.546Z,76.1
2022-07-30T01:01:08.172Z,76.4
2022-07-30T01:06:14.221Z,76.6
2022-07-30T01:11:16.181Z,77.1
2022-07-30T01:16:20.759Z,77.4
2022-07-30T01:21:24.281Z,77.6
2022-07-30T01:26:28.803Z,77.5
2022-07-30T01:31:33.436Z,77.8
2022-07-30T01:36:36.891Z,78.5
2022-07-30T01:41:41.444Z,79.1
2022-07-30T01:46:45.958Z,79.2
2022-07-30T01:51:49.490Z,79.1
2022-07-30T01:56:54.043Z,79.2
2022-07-30T02:01:58.576Z,80
2022-07-30T02:07:03.553Z,81
2022-07-30T02:12:06.658Z,82.1
2022-07-30T02:17:18.929Z,82.8
2022-07-30T02:22:15.696Z,83.3
2022-07-30T02:27:19.237Z,84.1
2022-07-30T02:32:23.794Z,84.8
2022-07-30T02:37:41.588Z,85.3
2022-07-30T02:42:31.893Z,85.7
2022-07-30T02:47:36.429Z,86.1
2022-07-30T02:52:40.948Z,86.4
2022-07-30T02:57:44.530Z,86.3
2022-07-30T03:02:49.096Z,86.1
2022-07-30T03:07:53.536Z,86.6
2022-07-30T03:12:58.091Z,87
2022-07-30T03:18:01.636Z,87.3
2022-07-30T03:23:06.174Z,87.5
2022-07-30T03:28:10.672Z,87.5
2022-07-30T03:33:14.287Z,87.8
2022-07-30T03:38:18.758Z,88.5
2022-07-30T03:43:33.602Z,88.7
2022-07-30T03:48:26.877Z,88.9
2022-07-30T03:53:31.420Z,89.1
2022-07-30T03:58:36.257Z,89.4
2022-07-30T04:03:39.581Z,89.4
2022-07-30T04:08:44.039Z,89.4
2022-07-30T04:13:48.513Z,89.5
2022-07-30T04:18:53.051Z,89.7
2022-07-30T04:24:03.600Z,89.8
2022-07-30T04:29:01.189Z,89.9
2022-07-30T04:34:05.714Z,89.9
2022-07-30T04:39:09.207Z,89.8
2022-07-30T04:44:13.787Z,89.7
2022-07-30T04:49:18.337Z,89.8
2022-07-30T04:54:21.849Z,89.4
2022-07-30T04:59:26.414Z,89.1
2022-07-30T05:04:30.934Z,88.6
2022-07-30T05:09:34.458Z,88.5
2022-07-30T05:14:38.998Z,88.3
2022-07-30T05:19:43.527Z,88.1
2022-07-30T05:24:48.035Z,87.9
2022-07-30T05:29:51.635Z,87.9
2022-07-30T05:34:55.194Z,88.3
2022-07-30T05:40:03.226Z,88.4
2022-07-30T05:45:04.216Z,88.3
2022-07-30T05:50:07.777Z,85.9
2022-07-30T05:55:12.317Z,84.8
2022-07-30T06:00:16.838Z,82.7
2022-07-30T06:05:21.412Z,83.4
2022-07-30T06:10:24.925Z,85.3
2022-07-30T06:15:29.465Z,84
2022-07-30T06:20:34.013Z,83.8
2022-07-30T06:25:37.548Z,85.3
2022-07-30T06:30:42.135Z,84.9
2022-07-30T06:35:46.629Z,82.7
2022-07-30T06:40:50.149Z,81.1
2022-07-30T06:45:54.785Z,78.3
2022-07-30T06:50:59.231Z,76.4
2022-07-30T06:56:02.796Z,75.5
2022-07-30T07:01:11.282Z,79.4
2022-07-30T07:06:11.861Z,77.8
2022-07-30T07:11:16.407Z,80.5
2022-07-30T07:16:19.977Z,76.9
2022-07-30T07:21:24.475Z,76.1
2022-07-30T07:26:29.024Z,74.8
2022-07-30T07:32:06.178Z,75.6
2022-07-30T07:36:37.129Z,74.4
2022-07-30T07:41:48.803Z,71.2
2022-07-30T07:46:45.270Z,75.8
2022-07-30T07:51:49.705Z,76.4
2022-07-30T07:56:54.227Z,70.7
2022-07-30T08:01:58.058Z,68.6
2022-07-30T08:07:02.863Z,66.8
2022-07-30T08:12:06.850Z,73.5
2022-07-30T08:17:11.548Z,72.7
2022-07-30T08:22:14.950Z,69.6
2022-07-30T08:27:19.484Z,70.7
2022-07-30T08:32:24.018Z,70.8
2022-07-30T08:37:27.608Z,66.1
2022-07-30T08:42:32.121Z,63.8
2022-07-30T08:47:36.685Z,68.3
2022-07-30T08:52:40.211Z,63.1
2022-07-30T08:57:44.756Z,59.8
2022-07-30T09:02:49.262Z,59.5
2022-07-30T09:07:52.833Z,62.3
2022-07-30T09:12:57.391Z,61.6
2022-07-30T09:18:01.985Z,60.1
2022-07-30T09:23:06.459Z,62
2022-07-30T09:28:15.687Z,61.5
2022-07-30T09:33:14.536Z,57.7
2022-07-30T09:38:19.107Z,58.4
2022-07-30T09:43:27.533Z,58.2
2022-07-30T09:48:26.342Z,56.1
2022-07-30T09:53:30.722Z,55.3
2022-07-30T09:58:35.254Z,60.2
2022-07-30T10:03:41.985Z,55.6
2022-07-30T10:08:46.277Z,59.3
2022-07-30T10:13:47.884Z,58.4
2022-07-30T10:18:52.440Z,60.8
2022-07-30T10:23:55.985Z,55.9
2022-07-30T10:29:00.533Z,59.2
2022-07-30T10:34:05.058Z,59
2022-07-30T10:39:08.627Z,56
2022-07-30T10:44:13.150Z,61.6
2022-07-30T10:49:19.048Z,63.5
2022-07-30T10:54:21.210Z,60.8
2022-07-30T10:59:28.950Z,56.2
2022-07-30T11:04:30.288Z,53.2
2022-07-30T11:09:34.856Z,54.7
2022-07-30T11:14:38.413Z,56.5
2022-07-30T11:19:56.106Z,52.5
2022-07-30T11:24:47.546Z,53.7
2022-07-30T11:29:51.622Z,50.4
2022-07-30T11:34:55.571Z,52.9
2022-07-30T11:40:00.086Z,55.5
2022-07-30T11:45:04.151Z,57.9
2022-07-30T11:50:08.186Z,52.8
2022-07-30T11:55:12.715Z,48.4
2022-07-30T12:00:16.280Z,51.3
2022-07-30T12:05:20.799Z,50.2
2022-07-30T12:10:27.030Z,49.6
2022-07-30T12:15:29.883Z,47.8
2022-07-30T12:20:33.414Z,47.2
2022-07-30T12:25:37.993Z,50.5
2022-07-30T12:30:42.544Z,51.2
2022-07-30T12:35:46.272Z,47.6
2022-07-30T12:40:50.602Z,47.7
2022-07-30T12:45:55.146Z,46.4
2022-07-30T12:50:58.676Z,46.7
2022-07-30T12:56:03.242Z,46.8
2022-07-30T13:01:07.834Z,43.8
2022-07-30T13:06:11.365Z,44.3
2022-07-30T13:11:15.869Z,45.4
2022-07-30T13:16:20.412Z,45.9
2022-07-30T13:21:24.940Z,43.6
2022-07-30T13:26:28.481Z,44.3
2022-07-30T13:31:43.145Z,43.5
2022-07-30T13:36:37.567Z,43.7
2022-07-30T13:41:41.124Z,43
2022-07-30T13:46:45.669Z,44.7
2022-07-30T13:51:50.241Z,45.9
2022-07-30T13:56:53.719Z,44.1
2022-07-30T14:01:58.349Z,43.3
2022-07-30T14:07:02.281Z,44
2022-07-30T14:12:06.371Z,45.7
2022-07-30T14:17:10.915Z,46.2
2022-07-30T14:22:14.535Z,47.4
2022-07-30T14:27:18.987Z,46
2022-07-30T14:32:23.564Z,46.3
2022-07-30T14:37:27.112Z,44.3
2022-07-30T14:42:31.610Z,45.2
2022-07-30T14:47:36.187Z,44.7
2022-07-30T14:52:39.710Z,45
2022-07-30T14:57:44.276Z,45
2022-07-30T15:02:48.802Z,44.5
2022-07-30T15:07:53.336Z,44.5
2022-07-30T15:12:56.887Z,44
2022-07-30T15:18:01.402Z,44.8
2022-07-30T15:23:08.433Z,45.8
2022-07-30T15:28:09.487Z,45.8
2022-07-30T15:33:14.054Z,47
2022-07-30T15:38:18.584Z,45
2022-07-30T15:43:22.122Z,47.7
2022-07-30T15:48:27.560Z,47.2
2022-07-30T15:53:31.305Z,47.4
2022-07-30T15:58:34.749Z,47.7
2022-07-30T16:03:39.290Z,46.8
2022-07-30T16:08:43.836Z,45.8
2022-07-30T16:13:48.353Z,47.6
2022-07-30T16:18:51.931Z,48.1
2022-07-30T16:23:56.485Z,48.2
2022-07-30T16:29:01.019Z,46.7
2022-07-30T16:34:04.592Z,46.6
2022-07-30T16:39:09.117Z,48
2022-07-30T16:44:13.666Z,48.5
2022-07-30T16:49:17.265Z,48.9
2022-07-30T16:54:21.716Z,49.6
2022-07-30T16:59:26.248Z,50.5
2022-07-30T17:04:29.819Z,51.9
2022-07-30T17:09:36.727Z,51.4
2022-07-30T17:14:38.883Z,52.1
2022-07-30T17:19:43.442Z,52.2
2022-07-30T17:24:46.974Z,52.7
2022-07-30T17:29:51.566Z,52.8
2022-07-30T17:34:56.037Z,51.6
2022-07-30T17:40:26.410Z,51.1
2022-07-30T17:45:04.141Z,51.3
2022-07-30T17:50:08.663Z,51.2
2022-07-30T17:55:12.248Z,52.1
2022-07-30T18:00:16.725Z,52.2
2022-07-30T18:05:21.284Z,52.8
2022-07-30T18:10:24.871Z,53.1
2022-07-30T18:15:29.375Z,53.3
2022-07-30T18:20:32.896Z,53.6
2022-07-30T18:25:53.348Z,54.6
2022-07-30T18:30:41.980Z,54.6
2022-07-30T18:35:45.536Z,54.6
2022-07-30T18:40:50.064Z,55.4
2022-07-30T18:45:54.661Z,56.3
2022-07-30T18:50:58.177Z,56.3
2022-07-30T18:56:02.764Z,57.4
2022-07-30T19:01:07.321Z,57.7
2022-07-30T19:06:11.793Z,58.1
2022-07-30T19:11:15.304Z,58.3
2022-07-30T19:16:19.852Z,58.4
2022-07-30T19:21:24.409Z,58.2
2022-07-30T19:26:27.966Z,57.7
2022-07-30T19:31:32.489Z,57.1
2022-07-30T19:36:37.019Z,57.8
2022-07-30T19:41:40.979Z,57.7
2022-07-30T19:46:45.094Z,58.3
2022-07-30T19:52:17.516Z,58
2022-07-30T19:56:53.188Z,58.6
2022-07-30T20:01:57.721Z,58.6
2022-07-30T20:07:02.275Z,59.1
2022-07-30T20:12:06.790Z,59.5
2022-07-30T20:17:10.317Z,60.2
2022-07-30T20:22:14.861Z,60
2022-07-30T20:27:37.173Z,59.9
2022-07-30T20:32:22.946Z,60
2022-07-30T20:37:27.765Z,60.4
2022-07-30T20:42:31.993Z,60.6
2022-07-30T20:47:38.389Z,60.6
2022-07-30T20:52:40.127Z,60.6
2022-07-30T20:58:02.798Z,60.8
2022-07-30T21:02:48.176Z,61
2022-07-30T21:07:53.137Z,61.1
2022-07-30T21:13:03.500Z,61.6
2022-07-30T21:18:02.097Z,61.5
2022-07-30T21:23:05.337Z,61.2
2022-07-30T21:28:09.856Z,61.6
2022-07-30T21:33:14.340Z,61.7
2022-07-30T21:38:17.926Z,62.1
2022-07-30T21:43:29.343Z,62.1
2022-07-30T21:48:27.256Z,62.5
2022-07-30T21:53:44.904Z,62.4
2022-07-30T21:58:35.050Z,62.5
2022-07-30T22:04:02.986Z,62.6
2022-07-30T22:08:43.157Z,63.1
2022-07-30T22:13:53.523Z,63.4
2022-07-30T22:18:52.270Z,63.9
2022-07-30T22:29:00.311Z,64.4
2022-07-30T22:34:03.856Z,64.9
2022-07-30T22:39:08.822Z,65.1
2022-07-30T22:44:13.149Z,65.3
2022-07-30T22:49:25.260Z,65.3
2022-07-30T22:54:20.996Z,65.6
2022-07-30T22:59:57.733Z,66.1
2022-07-30T23:04:30.086Z,66.2
2022-07-30T23:09:36.808Z,66.3
2022-07-30T23:12:33.211Z,63.8
2022-07-30T23:14:38.156Z,65.9
2022-07-30T23:19:42.686Z,66
2022-07-30T23:24:46.222Z,66
2022-07-30T23:29:50.780Z,66.2
2022-07-30T23:34:55.297Z,66
2022-07-30T23:39:58.850Z,66.1
2022-07-30T23:45:03.378Z,66.1
2022-07-30T23:50:07.930Z,65.3
2022-07-30T23:55:11.521Z,65.6
